Time;durP1;ratioP1;P1;durP2;ratioP2;P2;SDS_P1;SDS_P2;PMS_P1;PMS_P2;Temp;Humidity;BMP_temperature;BMP_pressure;BME280_temperature;BME280_humidity;BME280_pressure;Samples;Min_cycle;Max_cycle;Signal;HPM_P1;HPM_P2
2021/05/23 00:02:26;;;;;;;1.90;1.90;;;;;;;0.70;100.00;99121.13;5013635;28;20064;-77
2021/05/23 00:05:42;;;;;;;;;;;;;;;;;;;;;
2021/05/23 00:08:47;;;;;;;1.73;1.73;;;;;;;0.62;100.00;99111.56;5019923;28;20041;-77
2021/05/23 00:11:56;;;;;;;1.88;1.73;;;;;;;0.59;100.00;99126.88;5019268;28;20505;-77
2021/05/23 00:15:01;;;;;;;7.35;3.15;;;;;;;0.53;100.00;99125.06;5019515;28;20037;-78
2021/05/23 00:18:07;;;;;;;2.50;2.38;;;;;;;0.48;100.00;99118.13;5019126;28;20049;-78
2021/05/23 00:21:16;;;;;;;1.13;1.13;;;;;;;0.44;100.00;99113.91;5021335;28;20041;-77
2021/05/23 00:24:20;;;;;;;1.33;1.30;;;;;;;0.41;100.00;99114.78;5019141;28;20045;-77
2021/05/23 00:27:23;;;;;;;4.38;2.22;;;;;;;0.42;100.00;99116.31;5031967;28;20037;-78
2021/05/23 00:30:27;;;;;;;1.40;1.40;;;;;;;0.48;100.00;99114.59;5042475;28;20053;-78
2021/05/23 00:33:31;;;;;;;1.30;1.30;;;;;;;0.55;100.00;99111.72;5040469;28;20048;-77
2021/05/23 00:36:38;;;;;;;2.90;2.42;;;;;;;0.64;100.00;99111.91;5039631;28;20386;-77
2021/05/23 00:39:43;;;;;;;5.13;2.03;;;;;;;0.66;100.00;99112.25;5039849;28;20053;-77
2021/05/23 00:42:49;;;;;;;1.63;1.60;;;;;;;0.67;100.00;99111.06;5039385;28;20053;-77
2021/05/23 00:45:53;;;;;;;2.70;2.55;;;;;;;0.73;100.00;99109.34;5039551;28;20044;-77
2021/05/23 00:48:56;;;;;;;5.28;2.83;;;;;;;0.77;100.00;99104.53;5038355;28;20065;-77
2021/05/23 00:52:00;;;;;;;3.33;1.80;;;;;;;0.75;100.00;99106.94;5039725;28;20040;-76
2021/05/23 00:55:07;;;;;;;7.55;1.77;;;;;;;0.74;100.00;99105.38;5037994;28;20488;-76
2021/05/23 00:58:11;;;;;;;1.63;1.52;;;;;;;0.71;100.00;99103.53;5036693;28;20064;-75
2021/05/23 01:01:54;;;;;;;1.40;1.40;;;;;;;0.69;100.00;99103.19;5043547;28;20033;-77
2021/05/23 01:04:58;;;;;;;5.88;2.20;;;;;;;0.70;100.00;99100.00;5039227;28;20495;-75
2021/05/23 01:08:01;;;;;;;1.90;1.83;;;;;;;0.75;100.00;99101.47;5043207;28;20044;-77
2021/05/23 01:11:11;;;;;;;2.22;2.13;;;;;;;0.79;100.00;99102.16;5045009;28;20528;-77
2021/05/23 01:14:45;;;;;;;3.30;2.65;;;;;;;0.86;100.00;99099.25;5044659;28;20040;-78
2021/05/23 01:17:49;;;;;;;1.70;1.70;;;;;;;0.90;100.00;99094.44;5047321;28;20045;-77
2021/05/23 01:20:59;;;;;;;2.17;1.98;;;;;;;0.97;100.00;99102.50;5034527;28;20037;-78
2021/05/23 01:24:09;;;;;;;1.50;1.50;;;;;;;1.04;100.00;99093.31;5047162;28;20044;-77
2021/05/23 01:27:21;;;;;;;4.13;1.92;;;;;;;1.08;100.00;99092.03;5047098;28;20056;-77
2021/05/23 01:30:28;;;;;;;3.15;1.80;;;;;;;1.11;100.00;99085.69;5044022;28;20393;-77
2021/05/23 01:33:31;;;;;;;4.15;2.25;;;;;;;1.08;100.00;99086.56;5045504;28;20381;-77
2021/05/23 01:36:39;;;;;;;1.45;1.45;;;;;;;1.06;100.00;99079.97;5045452;28;20044;-78
2021/05/23 01:39:43;;;;;;;0.90;0.90;;;;;;;0.98;100.00;99076.59;5045832;28;20040;-77
2021/05/23 01:42:48;;;;;;;1.50;1.40;;;;;;;0.90;100.00;99074.47;5045813;28;20040;-77
2021/05/23 01:45:52;;;;;;;1.23;1.23;;;;;;;0.84;100.00;99068.75;5043619;28;20032;-77
2021/05/23 01:48:56;;;;;;;1.75;1.75;;;;;;;0.80;100.00;99076.28;5043353;28;20046;-77
2021/05/23 01:51:59;;;;;;;1.15;1.15;;;;;;;0.77;100.00;99072.44;5040268;28;20053;-77
2021/05/23 01:55:03;;;;;;;2.22;2.13;;;;;;;0.74;100.00;99073.28;5037902;28;20381;-78
2021/05/23 01:58:07;;;;;;;1.60;1.60;;;;;;;0.69;100.00;99076.53;5038217;28;20045;-78
2021/05/23 02:01:11;;;;;;;7.55;1.65;;;;;;;0.65;100.00;99066.88;5037586;28;20040;-78
2021/05/23 02:04:14;;;;;;;2.35;2.10;;;;;;;0.61;100.00;99068.91;5038519;28;20056;-78
2021/05/23 02:07:18;;;;;;;1.63;1.60;;;;;;;0.60;100.00;99067.38;5029476;28;20041;-78
2021/05/23 02:10:22;;;;;;;22.40;2.35;;;;;;;0.59;100.00;99060.34;5040808;28;20382;-78
2021/05/23 02:13:27;;;;;;;1.35;1.30;;;;;;;0.56;100.00;99061.97;5041427;28;20052;-78
2021/05/23 02:16:34;;;;;;;1.63;1.63;;;;;;;0.54;100.00;99058.13;5022813;28;20045;-78
2021/05/23 02:19:37;;;;;;;4.53;1.63;;;;;;;0.54;100.00;99061.63;5023673;28;20048;-78
2021/05/23 02:22:43;;;;;;;1.98;1.70;;;;;;;0.53;100.00;99056.59;5023067;28;20045;-78
2021/05/23 02:25:47;;;;;;;1.75;1.65;;;;;;;0.56;100.00;99050.25;5024338;28;20049;-78
2021/05/23 02:28:52;;;;;;;2.00;1.90;;;;;;;0.58;100.00;99058.81;5027734;28;20060;-78
2021/05/23 02:31:56;;;;;;;2.15;1.85;;;;;;;0.59;100.00;99063.88;5027041;28;20049;-78
2021/05/23 02:34:59;;;;;;;1.58;1.52;;;;;;;0.59;100.00;99060.34;5027229;28;20052;-78
2021/05/23 02:38:05;;;;;;;1.25;1.25;;;;;;;0.63;100.00;99056.31;5025817;28;20052;-78
2021/05/23 02:41:09;;;;;;;1.35;1.30;;;;;;;0.66;100.00;99055.47;5022398;28;20051;-78
2021/05/23 02:44:12;;;;;;;1.65;1.48;;;;;;;0.67;100.00;99050.78;5023938;28;20049;-78
2021/05/23 02:47:16;;;;;;;2.05;1.95;;;;;;;0.73;100.00;99054.53;5024819;28;20386;-78
2021/05/23 02:50:21;;;;;;;1.98;1.88;;;;;;;0.76;100.00;99048.19;5023306;28;20061;-78
2021/05/23 02:53:24;;;;;;;1.70;1.60;;;;;;;0.78;100.00;99045.78;5025050;28;20041;-78
2021/05/23 02:56:28;;;;;;;1.85;1.75;;;;;;;0.77;100.00;99049.75;5026037;28;20529;-78
2021/05/23 02:59:32;;;;;;;1.40;1.40;;;;;;;0.77;100.00;99049.75;5028504;28;20044;-78
2021/05/23 03:02:36;;;;;;;1.48;1.48;;;;;;;0.78;100.00;99046.56;5027154;28;20100;-78
2021/05/23 03:05:40;;;;;;;2.20;1.55;;;;;;;0.79;100.00;99036.38;5025273;28;20055;-78
2021/05/23 03:08:44;;;;;;;2.00;1.90;;;;;;;0.81;100.00;99033.97;5023408;28;20044;-77
2021/05/23 03:11:47;;;;;;;2.40;2.30;;;;;;;0.83;100.00;99031.56;5026032;28;20052;-78
2021/05/23 03:14:51;;;;;;;1.52;1.48;;;;;;;0.85;100.00;99031.91;5034184;28;20044;-78
2021/05/23 03:17:56;;;;;;;1.77;1.67;;;;;;;0.90;100.00;99036.09;5045133;28;20045;-77
2021/05/23 03:21:00;;;;;;;1.90;1.80;;;;;;;0.93;100.00;99036.03;5044894;28;20037;-78
2021/05/23 03:24:04;;;;;;;1.98;1.70;;;;;;;1.01;100.00;99023.69;5043968;28;20041;-78
2021/05/23 03:27:07;;;;;;;1.23;1.15;;;;;;;1.09;100.00;99021.50;5044185;28;20049;-78
2021/05/23 03:30:14;;;;;;;1.52;1.30;;;;;;;1.16;100.00;99027.59;5043827;28;20060;-78
2021/05/23 03:33:18;;;;;;;2.70;1.73;;;;;;;1.21;100.00;99018.81;5044766;28;20056;-78
2021/05/23 03:36:21;;;;;;;8.00;3.40;;;;;;;1.28;100.00;99024.09;5041259;28;20369;-78
2021/05/23 03:39:25;;;;;;;6.28;2.92;;;;;;;1.32;100.00;99016.56;5041146;28;20045;-78
2021/05/23 03:42:29;;;;;;;8.57;2.88;;;;;;;1.38;100.00;99017.59;5043898;28;20040;-78
2021/05/23 03:45:33;;;;;;;2.45;2.25;;;;;;;1.44;100.00;99015.06;5040988;28;20040;-78
2021/05/23 03:48:36;;;;;;;1.52;1.45;;;;;;;1.47;100.00;99014.94;5038439;28;20044;-78
2021/05/23 03:51:40;;;;;;;1.55;1.45;;;;;;;1.53;100.00;99010.50;5033637;28;20032;-80
2021/05/23 03:54:43;;;;;;;2.47;2.15;;;;;;;1.59;100.00;99010.72;5040266;28;20036;-80
2021/05/23 04:02:21;;;;;;;3.03;1.90;;;;;;;1.69;100.00;99008.88;5042873;28;20037;-80
2021/05/23 04:05:27;;;;;;;1.45;1.20;;;;;;;1.71;100.00;99009.22;5042582;28;20064;-81
2021/05/23 04:08:30;;;;;;;1.25;1.25;;;;;;;1.76;100.00;99009.44;5037878;28;20036;-81
2021/05/23 04:11:37;;;;;;;1.55;1.45;;;;;;;1.84;100.00;99015.50;5032002;28;20056;-81
2021/05/23 04:14:40;;;;;;;1.77;1.67;;;;;;;1.93;100.00;99008.13;5031043;28;20036;-80
2021/05/23 04:17:45;;;;;;;1.85;1.10;;;;;;;1.98;100.00;99004.06;5032753;28;20064;-81
2021/05/23 04:20:48;;;;;;;1.40;1.40;;;;;;;2.00;100.00;99012.63;5022789;28;20048;-80
2021/05/23 04:23:52;;;;;;;1.17;1.17;;;;;;;2.01;100.00;99014.19;5033946;28;20044;-79
2021/05/23 04:26:55;;;;;;;3.58;1.33;;;;;;;2.03;100.00;99018.03;5034971;28;20385;-80
2021/05/23 04:29:59;;;;;;;1.90;1.40;;;;;;;2.08;100.00;99019.47;5034879;28;20040;-80
2021/05/23 04:33:03;;;;;;;1.20;1.20;;;;;;;2.14;100.00;99020.47;5032601;28;20060;-79
2021/05/23 04:36:06;;;;;;;1.40;1.38;;;;;;;2.19;100.00;99017.94;5036263;28;20044;-80
2021/05/23 04:39:09;;;;;;;2.05;1.90;;;;;;;2.30;100.00;99017.59;5038103;28;20052;-80
2021/05/23 04:42:13;;;;;;;1.42;1.13;;;;;;;2.44;100.00;99025.41;5037611;28;20040;-80
2021/05/23 04:45:16;;;;;;;1.00;1.00;;;;;;;2.56;100.00;99035.59;5037814;28;20052;-80
2021/05/23 04:48:20;;;;;;;2.38;2.17;;;;;;;2.71;100.00;99022.94;5037164;28;20040;-79
2021/05/23 04:51:23;;;;;;;1.00;1.00;;;;;;;2.88;100.00;99027.06;5038136;28;20052;-80
2021/05/23 04:54:27;;;;;;;1.08;1.08;;;;;;;3.03;100.00;99025.38;5037459;28;20056;-82
2021/05/23 04:57:30;;;;;;;1.05;1.05;;;;;;;3.14;100.00;99027.00;5024765;28;20045;-82
2021/05/23 05:00:34;;;;;;;1.42;1.40;;;;;;;3.24;100.00;99034.13;5038358;28;20500;-83
2021/05/23 05:03:37;;;;;;;2.33;1.55;;;;;;;3.34;100.00;99021.97;5036185;28;20504;-84
2021/05/23 05:06:40;;;;;;;2.50;1.05;;;;;;;3.46;100.00;99013.69;5036186;28;20041;-84
2021/05/23 05:09:44;;;;;;;1.25;1.05;;;;;;;3.60;100.00;99009.63;5035969;28;20052;-84
2021/05/23 05:12:47;;;;;;;1.38;1.27;;;;;;;3.79;100.00;99014.03;5036256;28;20496;-82
2021/05/23 05:15:50;;;;;;;0.82;0.82;;;;;;;3.92;100.00;99011.22;5023410;28;20044;-82
2021/05/23 05:18:53;;;;;;;9.65;1.80;;;;;;;3.98;100.00;99004.66;5035619;28;20102;-83
2021/05/23 05:21:57;;;;;;;8.02;1.80;;;;;;;4.09;100.00;99002.28;5035868;28;20041;-83
2021/05/23 05:25:00;;;;;;;5.30;1.83;;;;;;;4.20;100.00;98996.34;5035690;28;20040;-83
2021/05/23 05:28:04;;;;;;;7.57;3.28;;;;;;;4.32;100.00;98993.47;5035488;28;20544;-81
2021/05/23 05:31:08;;;;;;;7.35;2.10;;;;;;;4.44;100.00;98987.06;5034588;28;20374;-84
2021/05/23 05:34:11;;;;;;;2.58;1.33;;;;;;;4.50;100.00;98976.97;5034586;28;20044;-82
2021/05/23 05:37:14;;;;;;;11.13;1.85;;;;;;;4.53;100.00;98983.56;5039041;28;20044;-83
2021/05/23 05:40:18;;;;;;;1.85;1.10;;;;;;;4.56;100.00;98983.44;5023527;28;20036;-83
2021/05/23 05:43:23;;;;;;;0.82;0.70;;;;;;;4.58;100.00;98978.25;5023590;28;20044;-83
2021/05/23 05:46:26;;;;;;;3.30;1.75;;;;;;;4.55;100.00;98973.63;5035432;28;20041;-81
2021/05/23 05:49:30;;;;;;;14.60;1.27;;;;;;;4.51;100.00;98973.00;5025985;28;20040;-81
2021/05/23 05:52:33;;;;;;;1.55;1.23;;;;;;;4.49;100.00;98964.44;5025611;28;20049;-81
2021/05/23 05:55:37;;;;;;;0.80;0.80;;;;;;;4.56;100.00;98971.66;5040790;28;20036;-81
2021/05/23 05:58:40;;;;;;;1.35;0.55;;;;;;;4.68;100.00;98964.47;5040624;28;20500;-81
2021/05/23 06:01:44;;;;;;;1.15;0.80;;;;;;;4.88;100.00;98962.81;5025817;28;20040;-80
2021/05/23 06:04:47;;;;;;;0.82;0.68;;;;;;;5.10;100.00;98957.13;5038584;28;20060;-81
2021/05/23 06:07:51;;;;;;;4.70;0.93;;;;;;;5.36;100.00;98952.81;5036152;28;20045;-83
2021/05/23 06:10:55;;;;;;;5.72;1.00;;;;;;;5.64;100.00;98962.59;5024526;28;20041;-81
2021/05/23 06:13:58;;;;;;;0.73;0.73;;;;;;;5.90;100.00;98949.97;5022881;28;20044;-83
2021/05/23 06:17:01;;;;;;;1.33;0.82;;;;;;;6.21;100.00;98951.69;5036977;28;20036;-81
2021/05/23 06:20:06;;;;;;;2.85;0.75;;;;;;;6.48;100.00;98951.53;5039085;28;20040;-80
2021/05/23 06:23:10;;;;;;;0.52;0.52;;;;;;;6.68;100.00;98948.97;5038989;28;20044;-82
2021/05/23 06:26:14;;;;;;;0.77;0.47;;;;;;;6.83;100.00;98938.72;5022926;28;20049;-83
2021/05/23 06:29:18;;;;;;;1.15;1.05;;;;;;;6.86;100.00;98932.25;5041089;28;20095;-82
2021/05/23 06:32:22;;;;;;;0.63;0.63;;;;;;;6.87;100.00;98929.00;5039410;28;20050;-82
2021/05/23 06:35:25;;;;;;;0.45;0.40;;;;;;;6.85;100.00;98930.69;5023599;28;20037;-82
2021/05/23 06:38:29;;;;;;;0.50;0.47;;;;;;;6.90;100.00;98938.34;5035041;28;20049;-83
2021/05/23 06:41:33;;;;;;;0.50;0.50;;;;;;;6.88;100.00;98929.75;5035241;28;20048;-84
2021/05/23 06:44:37;;;;;;;5.82;1.08;;;;;;;6.94;100.00;98933.41;5041195;28;20044;-83
2021/05/23 06:47:41;;;;;;;0.30;0.30;;;;;;;7.01;100.00;98933.03;5039906;28;20039;-82
2021/05/23 06:50:45;;;;;;;4.10;0.55;;;;;;;7.06;100.00;98924.06;5043783;28;20045;-79
2021/05/23 06:53:49;;;;;;;0.35;0.35;;;;;;;7.14;100.00;98933.56;5045998;28;20394;-80
2021/05/23 06:56:53;;;;;;;0.75;0.38;;;;;;;7.26;100.00;98926.97;5044789;28;20040;-79
2021/05/23 06:59:57;;;;;;;1.13;0.52;;;;;;;7.34;100.00;98925.34;5045953;28;20040;-80
2021/05/23 07:03:01;;;;;;;1.27;0.50;;;;;;;7.37;100.00;98921.63;5033626;28;20397;-80
2021/05/23 07:06:04;;;;;;;0.40;0.40;;;;;;;7.44;100.00;98918.50;5054698;28;20044;-80
2021/05/23 07:09:08;;;;;;;0.28;0.28;;;;;;;7.53;100.00;98918.41;5042960;28;20048;-81
2021/05/23 07:12:12;;;;;;;0.30;0.30;;;;;;;7.60;100.00;98918.00;5034028;28;20039;-80
2021/05/23 07:15:15;;;;;;;14.05;0.63;;;;;;;7.68;100.00;98918.41;5035289;28;20048;-78
2021/05/23 07:22:45;;;;;;;1.50;0.45;;;;;;;7.86;100.00;98928.53;5036065;28;20048;-80
2021/05/23 07:25:48;;;;;;;0.85;0.52;;;;;;;7.91;100.00;98928.59;5037483;28;20036;-80
2021/05/23 07:28:53;;;;;;;0.63;0.63;;;;;;;7.95;100.00;98920.84;5041952;28;20048;-80
2021/05/23 07:31:56;;;;;;;2.00;0.57;;;;;;;7.94;100.00;98926.88;5031217;28;20040;-81
2021/05/23 07:35:00;;;;;;;0.52;0.45;;;;;;;7.97;100.00;98923.16;5039675;28;20036;-80
2021/05/23 07:38:04;;;;;;;0.88;0.40;;;;;;;8.02;100.00;98925.22;5048860;28;20032;-81
2021/05/23 07:41:07;;;;;;;0.28;0.28;;;;;;;8.06;100.00;98915.47;5043908;28;20037;-81
2021/05/23 07:44:11;;;;;;;0.22;0.22;;;;;;;8.11;100.00;98911.25;5051811;28;20036;-80
2021/05/23 07:47:15;;;;;;;0.30;0.30;;;;;;;8.17;100.00;98909.34;5049358;28;20039;-79
2021/05/23 07:50:18;;;;;;;2.22;0.38;;;;;;;8.28;100.00;98912.28;5049512;28;20044;-79
2021/05/23 07:53:22;;;;;;;4.18;0.57;;;;;;;8.41;100.00;98918.28;5053929;28;20028;-79
2021/05/23 07:56:26;;;;;;;0.20;0.20;;;;;;;8.55;100.00;98911.94;5033754;28;20043;-80
2021/05/23 07:59:30;;;;;;;7.68;0.50;;;;;;;8.64;100.00;98914.53;5027380;28;20062;-79
2021/05/23 08:02:34;;;;;;;0.25;0.10;;;;;;;8.76;100.00;98913.47;5041040;28;20032;-79
2021/05/23 08:05:38;;;;;;;2.95;0.38;;;;;;;8.88;100.00;98911.59;5020821;28;20042;-79
2021/05/23 08:08:41;;;;;;;4.97;1.67;;;;;;;9.01;100.00;98921.06;5033310;28;20048;-78
2021/05/23 08:11:46;;;;;;;4.13;0.43;;;;;;;9.10;100.00;98918.16;5027332;28;20044;-78
2021/05/23 08:14:49;;;;;;;4.95;0.55;;;;;;;9.09;100.00;98908.31;5040919;28;20032;-79
2021/05/23 08:17:54;;;;;;;7.43;1.08;;;;;;;9.04;100.00;98914.56;5030509;28;20044;-79
2021/05/23 08:21:00;;;;;;;4.18;1.15;;;;;;;9.07;100.00;98910.78;5036060;28;20032;-79
2021/05/23 08:24:05;;;;;;;1.38;0.90;;;;;;;9.07;100.00;98913.56;5037347;28;20036;-81
2021/05/23 08:27:09;;;;;;;8.23;1.25;;;;;;;9.07;100.00;98913.56;5043632;28;20072;-80
2021/05/23 08:30:14;;;;;;;13.02;1.80;;;;;;;9.02;100.00;98917.06;5052750;28;20052;-79
2021/05/23 08:33:17;;;;;;;13.57;1.40;;;;;;;9.03;100.00;98915.78;5051232;28;20040;-80
2021/05/23 08:36:21;;;;;;;10.95;1.85;;;;;;;9.11;100.00;98918.91;5046417;28;20032;-79
2021/05/23 08:39:25;;;;;;;1.45;1.05;;;;;;;9.06;100.00;98923.16;5045651;28;20060;-80
2021/05/23 08:42:30;;;;;;;1.27;0.75;;;;;;;9.03;100.00;98920.59;5037536;28;20374;-82
2021/05/23 08:45:33;;;;;;;5.70;1.23;;;;;;;8.77;100.00;98917.75;5036830;28;20041;-80
2021/05/23 08:48:39;;;;;;;1.48;1.10;;;;;;;8.66;100.00;98917.63;5036830;28;20052;-80
2021/05/23 08:51:43;;;;;;;2.38;0.50;;;;;;;8.43;100.00;98926.13;5036255;28;20046;-79
2021/05/23 08:54:48;;;;;;;3.03;0.43;;;;;;;8.26;100.00;98925.88;5036709;28;20056;-79
2021/05/23 08:57:54;;;;;;;4.93;1.50;;;;;;;8.22;100.00;98916.97;5036586;28;20492;-80
2021/05/23 09:00:58;;;;;;;2.53;0.50;;;;;;;8.27;100.00;98924.66;5024154;28;20036;-79
2021/05/23 09:04:22;;;;;;;0.88;0.63;;;;;;;8.31;100.00;98925.97;5035804;28;20045;-80
2021/05/23 09:07:25;;;;;;;0.77;0.77;;;;;;;8.45;100.00;98918.84;5023423;28;20048;-80
2021/05/23 09:10:31;;;;;;;4.07;0.80;;;;;;;8.58;100.00;98910.16;5035411;28;20044;-81
2021/05/23 09:13:37;;;;;;;1.42;0.73;;;;;;;8.65;100.00;98902.22;5035547;28;20045;-79
2021/05/23 09:16:41;;;;;;;2.22;0.75;;;;;;;8.80;100.00;98905.69;5016121;28;20374;-80
2021/05/23 09:19:44;;;;;;;3.92;0.98;;;;;;;8.85;100.00;98901.44;5015943;28;20041;-81
2021/05/23 09:22:52;;;;;;;18.10;1.17;;;;;;;9.06;100.00;98894.63;5015640;28;20037;-81
2021/05/23 09:26:03;;;;;;;1.48;0.68;;;;;;;9.23;100.00;98898.31;5024636;28;20056;-80
2021/05/23 09:29:14;;;;;;;1.43;0.50;;;;;;;9.32;100.00;98892.63;5031261;28;20045;-80
2021/05/23 09:32:19;;;;;;;1.23;0.95;;;;;;;9.30;100.00;98897.13;5033302;28;20378;-81
2021/05/23 09:35:24;;;;;;;1.30;0.50;;;;;;;9.33;100.00;98898.94;5034531;28;20500;-81
2021/05/23 09:38:28;;;;;;;1.52;1.15;;;;;;;9.54;100.00;98895.59;5036315;28;20040;-81
2021/05/23 09:41:38;;;;;;;1.58;0.82;;;;;;;9.72;100.00;98886.16;5035315;28;20052;-81
2021/05/23 09:44:42;;;;;;;0.70;0.47;;;;;;;9.75;100.00;98876.81;5023102;28;20512;-81
2021/05/23 09:47:51;;;;;;;1.65;0.60;;;;;;;9.74;100.00;98883.66;5035171;28;20378;-82
2021/05/23 09:50:57;;;;;;;1.00;0.40;;;;;;;9.95;100.00;98879.50;5035285;28;20068;-80
2021/05/23 09:54:00;;;;;;;10.35;1.67;;;;;;;10.01;100.00;98877.53;5022707;28;20041;-80
2021/05/23 09:57:12;;;;;;;1.77;0.88;;;;;;;10.22;100.00;98876.16;5034400;28;20045;-81
2021/05/23 10:00:15;;;;;;;4.07;0.52;;;;;;;10.50;100.00;98860.38;5025248;28;20369;-80
2021/05/23 10:03:30;;;;;;;0.35;0.35;;;;;;;10.78;100.00;98865.31;5033932;28;20037;-80
2021/05/23 10:06:35;;;;;;;1.55;0.57;;;;;;;10.86;100.00;98858.00;5034676;28;20070;-81
2021/05/23 10:09:39;;;;;;;0.17;0.17;;;;;;;10.85;100.00;98853.69;5034766;28;20041;-80
2021/05/23 10:12:43;;;;;;;0.63;0.10;;;;;;;10.64;100.00;98839.94;5034868;28;20409;-81
2021/05/23 10:15:48;;;;;;;12.25;0.40;;;;;;;10.66;100.00;98842.22;5034861;28;20048;-81
2021/05/23 10:18:52;;;;;;;1.80;0.43;;;;;;;10.70;100.00;98842.00;5034576;28;20048;-81
2021/05/23 10:21:57;;;;;;;0.40;0.30;;;;;;;10.76;100.00;98857.47;5033981;28;20044;-81
2021/05/23 10:25:06;;;;;;;0.55;0.28;;;;;;;10.78;100.00;98849.38;5035001;28;20101;-81
2021/05/23 10:28:10;;;;;;;0.70;0.40;;;;;;;10.93;100.00;98843.59;5023795;28;20048;-81
2021/05/23 10:31:14;;;;;;;0.68;0.52;;;;;;;11.00;100.00;98849.41;5034253;28;20057;-80
2021/05/23 10:34:18;;;;;;;2.28;0.43;;;;;;;10.95;100.00;98835.50;5033524;28;20056;-80
2021/05/23 10:37:30;;;;;;;1.25;0.65;;;;;;;10.82;100.00;98837.97;5034290;28;20056;-81
2021/05/23 10:40:35;;;;;;;0.40;0.28;;;;;;;10.61;100.00;98846.50;5034661;28;20097;-82
2021/05/23 10:43:38;;;;;;;3.30;0.55;;;;;;;10.68;100.00;98834.91;5034355;28;20021;-81
2021/05/23 10:46:52;;;;;;;2.10;0.65;;;;;;;10.86;100.00;98828.13;5033675;28;20432;-81
2021/05/23 10:50:02;;;;;;;1.77;0.85;;;;;;;10.98;100.00;98828.94;5032467;28;20064;-81
2021/05/23 10:53:06;;;;;;;0.28;0.28;;;;;;;10.99;100.00;98833.22;5028213;28;20056;-81
2021/05/23 10:56:29;;;;;;;1.00;0.65;;;;;;;11.20;100.00;98834.50;5031355;28;20409;-80
2021/05/23 10:59:34;;;;;;;1.00;0.35;;;;;;;11.44;100.00;98826.44;5031731;28;20032;-80
2021/05/23 11:02:40;;;;;;;1.85;0.52;;;;;;;11.63;100.00;98826.72;5032565;28;20033;-81
2021/05/23 11:05:44;;;;;;;2.95;1.13;;;;;;;11.83;100.00;98824.44;5032994;28;20036;-81
2021/05/23 11:08:48;;;;;;;4.05;0.32;;;;;;;11.73;100.00;98803.66;5031616;28;20381;-83
2021/05/23 11:11:52;;;;;;;1.02;0.50;;;;;;;11.75;100.00;98805.94;5031568;28;20052;-83
2021/05/23 11:14:57;;;;;;;0.60;0.30;;;;;;;11.96;100.00;98796.00;5032164;28;20049;-82
2021/05/23 11:18:00;;;;;;;3.17;0.10;;;;;;;12.16;100.00;98784.53;5033150;28;20744;-83
2021/05/23 11:21:09;;;;;;;0.20;0.20;;;;;;;12.21;100.00;98791.38;5021404;28;20049;-82
2021/05/23 11:24:14;;;;;;;0.38;0.38;;;;;;;12.24;100.00;98770.78;5033212;28;20036;-84
2021/05/23 11:27:19;;;;;;;0.10;0.10;;;;;;;12.19;100.00;98770.31;5011742;28;20092;-85
2021/05/23 11:30:22;;;;;;;1.17;0.77;;;;;;;12.14;100.00;98762.72;5010761;28;20033;-86
2021/05/23 11:33:26;;;;;;;2.88;0.43;;;;;;;12.17;100.00;98753.31;5014560;28;20069;-84
2021/05/23 11:36:35;;;;;;;23.00;3.13;;;;;;;12.33;100.00;98754.53;5003429;28;20040;-84
2021/05/23 11:39:39;;;;;;;24.45;3.72;;;;;;;12.42;100.00;98750.69;5008738;28;20045;-81
2021/05/23 11:42:42;;;;;;;1.35;0.75;;;;;;;12.46;100.00;98740.00;5010456;28;20037;-82
2021/05/23 11:45:51;;;;;;;12.25;1.17;;;;;;;12.39;100.00;98730.13;5013025;28;20044;-79
2021/05/23 11:48:56;;;;;;;2.08;0.43;;;;;;;12.41;100.00;98722.00;5012185;28;20041;-78
2021/05/23 11:52:01;;;;;;;5.93;1.25;;;;;;;12.46;100.00;98723.25;5006685;28;20041;-85
2021/05/23 11:55:06;;;;;;;6.10;1.30;;;;;;;12.48;100.00;98709.50;4998552;28;20048;-82
2021/05/23 11:58:12;;;;;;;1.77;0.77;;;;;;;12.63;100.00;98709.94;4994062;28;20049;-79
2021/05/23 12:01:20;;;;;;;5.65;1.00;;;;;;;12.70;100.00;98709.38;4994391;28;20038;-83
2021/05/23 12:04:25;;;;;;;1.08;0.52;;;;;;;12.85;100.00;98699.38;5000087;28;20033;-82
2021/05/23 12:07:38;;;;;;;1.15;0.25;;;;;;;12.96;100.00;98695.75;5001295;28;20378;-79
2021/05/23 12:10:41;;;;;;;3.47;0.75;;;;;;;13.09;100.00;98690.34;5001037;28;20053;-81
2021/05/23 12:13:49;;;;;;;7.57;1.70;;;;;;;13.38;100.00;98683.22;5013239;28;20045;-78
2021/05/23 12:17:16;;;;;;;4.85;0.93;;;;;;;13.81;100.00;98680.47;4994114;28;20374;-79
2021/05/23 12:20:19;;;;;;;1.10;0.20;;;;;;;14.05;100.00;98683.25;4993513;28;20046;-79
2021/05/23 12:23:23;;;;;;;0.63;0.45;;;;;;;14.12;100.00;98672.19;4993438;28;20033;-79
2021/05/23 12:26:26;;;;;;;5.38;0.95;;;;;;;14.31;100.00;98658.97;4995308;28;20045;-79
2021/05/23 12:29:30;;;;;;;0.50;0.40;;;;;;;14.42;100.00;98666.50;5014160;28;20049;-78
2021/05/23 12:32:40;;;;;;;0.30;0.28;;;;;;;14.52;100.00;98659.22;5012996;28;20466;-79
2021/05/23 12:35:44;;;;;;;6.05;0.52;;;;;;;14.41;100.00;98664.97;5012057;28;20048;-78
2021/05/23 12:39:08;;;;;;;1.40;0.40;;;;;;;14.12;100.00;98669.38;5012014;28;20381;-79
2021/05/23 12:42:11;;;;;;;7.45;1.27;;;;;;;13.93;100.00;98654.63;5012816;28;20036;-77
2021/05/23 12:45:15;;;;;;;0.32;0.22;;;;;;;13.67;100.00;98660.78;5012975;28;20041;-77
2021/05/23 12:48:21;;;;;;;0.17;0.10;;;;;;;13.25;100.00;98658.69;5013037;28;20049;-77
2021/05/23 12:51:25;;;;;;;0.63;0.20;;;;;;;12.75;100.00;98649.94;5015034;28;20100;-79
2021/05/23 12:54:32;;;;;;;0.52;0.30;;;;;;;12.51;100.00;98652.66;5031091;28;20048;-79
2021/05/23 12:57:35;;;;;;;1.65;0.43;;;;;;;12.38;100.00;98633.69;5026752;28;20041;-77
2021/05/23 13:00:41;;;;;;;1.85;0.30;;;;;;;12.63;100.00;98631.72;5016600;28;20133;-81
2021/05/23 13:03:59;;;;;;;0.30;0.10;;;;;;;12.89;100.00;98620.84;5035831;28;20515;-78
2021/05/23 13:07:05;;;;;;;2.65;0.40;;;;;;;13.13;100.00;98612.53;5036383;28;20044;-76
2021/05/23 13:10:15;;;;;;;0.90;0.40;;;;;;;12.87;100.00;98601.06;5035742;28;20377;-77
2021/05/23 13:13:19;;;;;;;0.90;0.20;;;;;;;12.51;100.00;98607.97;5035998;28;20037;-77
2021/05/23 13:16:22;;;;;;;0.10;0.10;;;;;;;12.19;100.00;98607.69;5016008;28;20048;-77
2021/05/23 13:19:28;;;;;;;0.50;0.35;;;;;;;12.13;100.00;98601.34;5016049;28;20045;-77
2021/05/23 13:22:33;;;;;;;0.45;0.10;;;;;;;12.19;100.00;98602.09;5016227;28;20057;-77
2021/05/23 13:25:36;;;;;;;0.10;0.10;;;;;;;12.06;100.00;98591.50;5015612;28;20049;-78
2021/05/23 13:28:40;;;;;;;6.05;0.77;;;;;;;11.93;100.00;98593.38;5034731;28;20040;-79
2021/05/23 13:31:44;;;;;;;0.80;0.52;;;;;;;11.72;100.00;98606.88;5035739;28;20040;-79
2021/05/23 13:34:48;;;;;;;0.40;0.10;;;;;;;11.35;100.00;98614.84;5035511;28;20045;-80
2021/05/23 13:37:54;;;;;;;1.85;0.55;;;;;;;11.01;100.00;98599.47;5035735;28;20044;-80
2021/05/23 13:40:58;;;;;;;0.10;0.10;;;;;;;11.26;100.00;98601.94;5017227;28;20041;-78
2021/05/23 13:44:02;;;;;;;1.58;0.40;;;;;;;11.61;100.00;98590.16;5014741;28;20385;-78
2021/05/23 13:47:05;;;;;;;2.08;0.63;;;;;;;11.98;100.00;98573.03;5023040;28;20061;-77
2021/05/23 13:50:09;;;;;;;0.30;0.30;;;;;;;12.28;100.00;98573.13;5035247;28;20052;-77
2021/05/23 13:53:13;;;;;;;0.95;0.25;;;;;;;12.67;100.00;98570.75;5036129;28;20500;-78
2021/05/23 13:56:16;;;;;;;1.05;0.17;;;;;;;12.84;100.00;98551.81;5034610;28;20044;-78
2021/05/23 13:59:19;;;;;;;0.43;0.10;;;;;;;13.04;100.00;98559.72;5034971;28;20040;-77
2021/05/23 14:02:22;;;;;;;1.00;0.20;;;;;;;13.07;100.00;98558.72;5035078;28;20377;-78
2021/05/23 14:05:26;;;;;;;0.20;0.10;;;;;;;12.93;100.00;98543.84;5037084;28;20048;-77
2021/05/23 14:08:32;;;;;;;0.63;0.15;;;;;;;12.52;100.00;98548.03;5037182;28;20044;-76
2021/05/23 14:11:36;;;;;;;0.40;0.32;;;;;;;11.98;100.00;98545.91;5030663;28;20044;-75
2021/05/23 14:14:39;;;;;;;3.85;1.27;;;;;;;11.58;100.00;98543.81;5034941;28;20057;-76
2021/05/23 14:17:43;;;;;;;0.20;0.20;;;;;;;11.07;100.00;98541.69;5035122;28;20041;-76
2021/05/23 14:20:47;;;;;;;0.20;0.20;;;;;;;10.91;100.00;98539.72;5035138;28;20052;-77
2021/05/23 14:23:50;;;;;;;3.70;0.55;;;;;;;11.13;100.00;98534.09;5054829;28;20378;-77
2021/05/23 14:26:53;;;;;;;0.40;0.30;;;;;;;11.21;100.00;98513.56;5033701;28;20053;-78
2021/05/23 14:29:57;;;;;;;0.95;0.20;;;;;;;11.31;100.00;98514.00;5014678;28;20041;-80
2021/05/23 14:33:00;;;;;;;5.78;0.57;;;;;;;11.34;100.00;98510.22;5014682;28;20354;-80
2021/05/23 14:36:04;;;;;;;4.10;1.08;;;;;;;11.36;100.00;98513.25;5014612;28;20045;-79
2021/05/23 14:39:09;;;;;;;0.30;0.30;;;;;;;11.30;100.00;98515.31;5034301;28;20508;-81